Time;durP1;ratioP1;P1;durP2;ratioP2;P2;SDS_P1;SDS_P2;PMS_P1;PMS_P2;Temp;Humidity;BMP_temperature;BMP_pressure;BME280_temperature;BME280_humidity;BME280_pressure;Samples;Min_cycle;Max_cycle;Signal;HPM_P1;HPM_P2
2021/06/09 00:02:30;;;;;;;11.87;7.47;;;;;;;12.86;100.00;94712.66;10504102;28;20024;-80
2021/06/09 00:07:31;;;;;;;9.63;7.03;;;;;;;12.88;100.00;94719.38;10488568;28;20111;-80
2021/06/09 00:12:33;;;;;;;10.80;7.80;;;;;;;12.84;100.00;94715.66;10488856;28;20024;-80
2021/06/09 00:17:33;;;;;;;10.00;7.50;;;;;;;12.76;100.00;94711.66;10490649;28;20032;-80
2021/06/09 00:22:33;;;;;;;12.52;8.32;;;;;;;12.89;100.00;94706.69;10490508;28;20024;-81
2021/06/09 00:27:34;;;;;;;11.60;7.30;;;;;;;12.91;100.00;94708.00;10490231;28;20114;-81
2021/06/09 00:32:34;;;;;;;10.57;7.17;;;;;;;12.82;100.00;94707.84;10492268;28;20049;-80
2021/06/09 00:37:34;;;;;;;11.97;8.20;;;;;;;12.77;100.00;94712.50;10497840;28;20025;-81
2021/06/09 00:42:35;;;;;;;17.45;8.73;;;;;;;12.70;100.00;94710.13;10498103;28;20083;-81
2021/06/09 00:47:36;;;;;;;14.90;8.60;;;;;;;12.80;100.00;94711.91;10498170;28;20595;-80
2021/06/09 00:52:36;;;;;;;10.17;7.47;;;;;;;12.73;100.00;94712.25;10497997;28;20382;-80
2021/06/09 00:57:37;;;;;;;12.63;8.30;;;;;;;12.67;100.00;94713.41;10495999;28;20494;-80
2021/06/09 01:02:38;;;;;;;12.35;7.97;;;;;;;12.68;100.00;94709.59;10512019;28;20122;-80
2021/06/09 01:07:39;;;;;;;11.63;7.40;;;;;;;12.58;100.00;94704.34;10496439;28;20063;-80
2021/06/09 01:12:40;;;;;;;10.23;7.93;;;;;;;12.50;100.00;94696.88;10511788;28;20119;-80
2021/06/09 01:17:40;;;;;;;15.20;7.80;;;;;;;12.32;100.00;94712.66;10511685;28;20032;-80
2021/06/09 01:22:41;;;;;;;14.87;8.93;;;;;;;12.24;100.00;94711.41;10496060;28;20039;-80
2021/06/09 01:27:41;;;;;;;15.75;10.02;;;;;;;12.16;100.00;94705.84;10494446;28;20077;-80
2021/06/09 01:32:42;;;;;;;13.60;9.35;;;;;;;12.22;100.00;94715.47;10495762;28;20428;-80
2021/06/09 01:37:43;;;;;;;16.20;9.65;;;;;;;12.27;100.00;94712.75;10495696;28;20051;-80
2021/06/09 01:42:44;;;;;;;12.63;8.52;;;;;;;12.26;100.00;94720.00;10495218;28;20025;-80
2021/06/09 01:47:44;;;;;;;13.15;8.50;;;;;;;12.35;100.00;94719.38;10495478;28;20106;-82
2021/06/09 01:52:46;;;;;;;14.10;9.50;;;;;;;12.30;100.00;94721.03;10495289;28;20021;-80
2021/06/09 01:57:47;;;;;;;12.93;8.82;;;;;;;12.40;100.00;94716.66;10493564;28;20059;-80
2021/06/09 02:02:48;;;;;;;17.63;9.68;;;;;;;12.42;100.00;94726.06;10494292;28;20551;-80
2021/06/09 02:07:48;;;;;;;17.00;10.23;;;;;;;12.44;100.00;94731.97;10494593;28;20410;-80
2021/06/09 02:12:52;;;;;;;18.90;11.13;;;;;;;12.39;100.00;94728.50;10493468;28;20012;-80
2021/06/09 02:18:00;;;;;;;20.63;11.93;;;;;;;12.52;100.00;94729.75;10493676;28;20108;-80
2021/06/09 02:23:00;;;;;;;16.75;10.88;;;;;;;12.72;100.00;94726.81;10492293;28;20078;-81
2021/06/09 02:28:02;;;;;;;21.48;12.85;;;;;;;12.81;100.00;94741.28;10492682;28;20472;-79
2021/06/09 02:33:04;;;;;;;22.40;12.65;;;;;;;12.79;100.00;94729.97;10487283;28;20094;-79
2021/06/09 02:38:06;;;;;;;25.77;14.88;;;;;;;12.74;100.00;94730.06;10490356;28;20016;-79
2021/06/09 02:43:07;;;;;;;22.92;13.25;;;;;;;12.74;100.00;94730.06;10490590;28;20567;-79
2021/06/09 02:48:10;;;;;;;24.58;14.60;;;;;;;12.62;100.00;94724.25;10491584;28;20032;-80
2021/06/09 02:53:17;;;;;;;29.27;14.70;;;;;;;12.48;100.00;94727.59;10491862;28;20029;-81
2021/06/09 02:58:27;;;;;;;27.70;16.10;;;;;;;12.45;100.00;94727.38;10490706;28;20040;-80
2021/06/09 03:03:33;;;;;;;31.20;15.68;;;;;;;12.68;100.00;94735.78;10488603;28;20032;-82
2021/06/09 03:08:42;;;;;;;37.67;19.40;;;;;;;12.83;100.00;94731.00;10491786;28;20035;-81
2021/06/09 03:14:29;;;;;;;46.20;21.60;;;;;;;12.92;100.00;94747.38;10491899;28;20021;-81
2021/06/09 03:19:42;;;;;;;36.38;20.17;;;;;;;12.88;100.00;94737.44;10491300;28;20017;-81
2021/06/09 03:24:47;;;;;;;40.97;19.40;;;;;;;12.74;100.00;94734.63;10491943;28;20035;-81
2021/06/09 03:29:50;;;;;;;47.15;21.38;;;;;;;12.61;100.00;94745.03;10489743;28;20034;-80
2021/06/09 03:35:16;;;;;;;42.45;18.80;;;;;;;12.74;100.00;94745.41;10484409;28;20048;-80
2021/06/09 03:40:28;;;;;;;35.60;19.45;;;;;;;12.90;100.00;94744.16;10487793;28;20035;-81
2021/06/09 03:45:32;;;;;;;32.53;17.48;;;;;;;13.06;100.00;94741.28;10487994;28;20035;-81
2021/06/09 03:50:33;;;;;;;34.92;19.00;;;;;;;13.16;100.00;94728.47;10488965;28;20028;-81
2021/06/09 03:55:36;;;;;;;35.10;20.75;;;;;;;13.30;100.00;94727.75;10489574;28;20146;-80
2021/06/09 04:00:38;;;;;;;38.28;19.58;;;;;;;13.52;100.00;94727.19;10489737;28;20028;-80
2021/06/09 04:05:41;;;;;;;38.13;20.00;;;;;;;13.26;100.00;94714.03;10489091;28;20035;-80
2021/06/09 04:10:44;;;;;;;32.08;18.73;;;;;;;13.30;100.00;94728.56;10488944;28;20024;-81
2021/06/09 04:15:46;;;;;;;31.15;18.10;;;;;;;13.39;100.00;94733.34;10489641;28;20108;-73
2021/06/09 04:20:49;;;;;;;34.03;17.27;;;;;;;13.61;100.00;94725.47;10487733;28;20752;-81
2021/06/09 04:25:49;;;;;;;32.78;18.27;;;;;;;13.79;100.00;94723.84;10485290;28;20133;-74
2021/06/09 04:30:51;;;;;;;33.83;20.60;;;;;;;14.02;100.00;94724.84;10484790;28;20037;-73
2021/06/09 04:35:52;;;;;;;27.58;16.67;;;;;;;14.51;100.00;94728.06;10485149;28;20763;-73
2021/06/09 04:40:53;;;;;;;37.70;17.57;;;;;;;14.64;100.00;94726.50;10484894;28;20025;-73
2021/06/09 04:45:53;;;;;;;29.40;17.38;;;;;;;14.91;100.00;94716.81;10484713;28;20024;-73
2021/06/09 04:50:54;;;;;;;27.58;18.17;;;;;;;14.78;100.00;94720.31;10484281;28;20013;-73
2021/06/09 04:55:55;;;;;;;39.92;18.40;;;;;;;14.79;100.00;94724.63;10483664;28;20059;-73
2021/06/09 05:00:56;;;;;;;36.25;20.08;;;;;;;14.73;100.00;94731.22;10484483;28;20060;-74
2021/06/09 05:05:56;;;;;;;29.40;17.50;;;;;;;14.57;100.00;94725.25;10483951;28;20141;-74
2021/06/09 05:11:00;;;;;;;38.10;19.80;;;;;;;14.32;100.00;94733.53;10483547;28;20328;-73
2021/06/09 05:16:05;;;;;;;34.72;19.35;;;;;;;14.38;100.00;94736.16;10483624;28;20617;-73
2021/06/09 05:21:06;;;;;;;30.67;17.27;;;;;;;14.58;100.00;94735.81;10486502;28;20028;-73
2021/06/09 05:26:10;;;;;;;36.40;18.00;;;;;;;14.90;100.00;94725.22;10490101;28;20043;-73
2021/06/09 05:31:12;;;;;;;28.10;15.40;;;;;;;15.95;100.00;94720.84;10489493;28;20580;-73
2021/06/09 05:36:13;;;;;;;22.50;13.73;;;;;;;17.52;100.00;94712.63;10491021;28;20021;-73
2021/06/09 05:41:14;;;;;;;20.98;14.45;;;;;;;18.32;100.00;94706.91;10491169;28;20374;-73
2021/06/09 05:46:14;;;;;;;24.35;13.88;;;;;;;18.17;100.00;94701.94;10490812;28;20030;-73
2021/06/09 05:51:18;;;;;;;32.70;14.43;;;;;;;18.23;100.00;94706.09;10490847;28;20025;-74
2021/06/09 05:56:18;;;;;;;28.42;14.15;;;;;;;18.55;100.00;94706.69;10489878;28;20275;-73
2021/06/09 06:01:19;;;;;;;24.08;14.40;;;;;;;18.54;100.00;94697.69;10489978;28;20441;-73
2021/06/09 06:06:20;;;;;;;30.08;15.20;;;;;;;18.62;100.00;94694.16;10490310;28;20028;-73
2021/06/09 06:11:22;;;;;;;23.58;14.18;;;;;;;19.00;100.00;94694.53;10489797;28;20016;-73
2021/06/09 06:16:23;;;;;;;25.33;14.52;;;;;;;19.13;100.00;94691.56;10489670;28;20031;-73
2021/06/09 06:21:24;;;;;;;18.80;12.93;;;;;;;20.80;100.00;94693.75;10489654;28;20093;-74
2021/06/09 06:26:25;;;;;;;17.43;10.70;;;;;;;22.02;100.00;94688.53;10488973;28;20035;-73
2021/06/09 06:31:28;;;;;;;19.17;10.93;;;;;;;23.31;100.00;94684.84;10488092;28;20703;-73
2021/06/09 06:36:29;;;;;;;14.23;9.35;;;;;;;24.30;100.00;94691.28;10488695;28;20029;-73
2021/06/09 06:41:30;;;;;;;20.30;11.02;;;;;;;24.41;87.76;94678.56;10487298;28;20042;-73
2021/06/09 06:46:30;;;;;;;22.35;11.52;;;;;;;25.24;85.62;94680.81;10487900;28;20105;-73
2021/06/09 06:51:32;;;;;;;21.63;11.18;;;;;;;25.47;78.66;94671.75;10488039;28;20079;-73
2021/06/09 06:56:33;;;;;;;17.67;10.68;;;;;;;26.38;74.38;94671.75;10486614;28;20081;-75
2021/06/09 07:01:36;;;;;;;19.17;11.05;;;;;;;26.88;66.40;94679.00;10486448;28;20040;-74
2021/06/09 07:06:38;;;;;;;17.30;9.70;;;;;;;27.56;65.30;94673.25;10486755;28;20734;-74
2021/06/09 07:11:41;;;;;;;19.55;10.80;;;;;;;27.75;64.02;94675.72;10487195;28;20020;-75
2021/06/09 07:16:44;;;;;;;18.65;9.93;;;;;;;28.11;61.50;94664.88;10485994;28;20532;-75
2021/06/09 07:21:44;;;;;;;19.48;10.02;;;;;;;28.83;58.84;94667.13;10487171;28;20025;-76
2021/06/09 07:26:46;;;;;;;20.58;10.15;;;;;;;29.76;53.89;94673.84;10486704;28;20047;-76
2021/06/09 07:31:48;;;;;;;26.83;10.07;;;;;;;30.13;51.38;94673.34;10486339;28;20537;-77
2021/06/09 07:37:04;;;;;;;20.60;9.80;;;;;;;29.62;51.76;94669.88;10485430;28;20023;-77
2021/06/09 07:42:09;;;;;;;16.58;7.90;;;;;;;30.98;49.13;94667.00;10485249;28;20437;-77
2021/06/09 07:47:12;;;;;;;13.70;9.18;;;;;;;31.74;44.04;94660.88;10487660;28;20774;-76
2021/06/09 07:52:13;;;;;;;13.52;8.10;;;;;;;32.02;43.59;94656.97;10487303;28;20021;-77
2021/06/09 07:57:15;;;;;;;18.00;8.77;;;;;;;32.37;40.86;94658.59;10503017;28;20020;-77
2021/06/09 08:02:21;;;;;;;16.45;7.30;;;;;;;32.86;40.62;94661.13;10486955;28;20021;-77
2021/06/09 08:07:21;;;;;;;19.27;9.00;;;;;;;32.76;40.52;94656.50;10486931;28;20078;-77
2021/06/09 08:12:22;;;;;;;18.07;8.90;;;;;;;33.57;38.14;94668.78;10486856;28;20125;-77
2021/06/09 08:17:22;;;;;;;12.30;7.75;;;;;;;34.22;38.47;94657.22;10486814;28;20086;-77
2021/06/09 08:22:23;;;;;;;16.77;8.80;;;;;;;34.09;36.67;94659.09;10486758;28;20032;-77
2021/06/09 08:27:23;;;;;;;13.98;8.20;;;;;;;34.14;36.27;94652.25;10486568;28;20023;-77
2021/06/09 08:32:24;;;;;;;13.73;6.83;;;;;;;32.76;38.24;94652.94;10486101;28;20098;-77
2021/06/09 08:37:26;;;;;;;10.23;5.93;;;;;;;34.24;36.81;94646.44;10486271;28;20050;-77
2021/06/09 08:42:30;;;;;;;14.52;6.22;;;;;;;34.94;35.87;94637.44;10486169;28;20290;-77
2021/06/09 08:47:31;;;;;;;11.38;5.40;;;;;;;34.40;34.82;94642.94;10485956;28;20060;-77
2021/06/09 08:52:31;;;;;;;14.38;4.72;;;;;;;33.68;35.09;94641.50;10486405;28;20108;-77
2021/06/09 08:57:33;;;;;;;6.55;2.78;;;;;;;35.29;33.55;94643.38;10492474;28;20461;-77
2021/06/09 09:02:33;;;;;;;4.03;2.10;;;;;;;35.99;30.81;94641.22;10492796;28;20017;-77
2021/06/09 09:07:35;;;;;;;5.30;2.70;;;;;;;36.36;31.77;94636.22;10492900;28;20031;-75
2021/06/09 09:12:36;;;;;;;8.57;2.90;;;;;;;36.40;32.28;94637.69;10492655;28;20032;-77
2021/06/09 09:18:04;;;;;;;2.92;1.90;;;;;;;37.47;28.13;94632.03;10508799;28;20117;-77
2021/06/09 09:23:28;;;;;;;5.22;2.88;;;;;;;36.75;28.82;94628.66;10493363;28;20032;-77
2021/06/09 09:28:32;;;;;;;5.60;2.30;;;;;;;35.99;29.32;94630.03;10517221;28;20027;-75
2021/06/09 09:33:33;;;;;;;3.88;1.70;;;;;;;36.33;28.22;94625.91;10509409;28;20036;-77
2021/06/09 09:38:33;;;;;;;3.17;2.13;;;;;;;37.78;26.47;94617.38;10514709;28;20024;-75
2021/06/09 09:43:54;;;;;;;4.23;1.80;;;;;;;37.69;28.02;94608.84;10512696;28;20024;-74
2021/06/09 09:49:11;;;;;;;4.88;1.50;;;;;;;38.96;25.66;94592.53;10514692;28;20020;-75
2021/06/09 09:54:13;;;;;;;3.42;1.83;;;;;;;39.13;25.84;94595.06;10513963;28;20456;-75
2021/06/09 09:59:14;;;;;;;4.05;1.70;;;;;;;38.95;26.16;94582.53;10512061;28;20028;-75
2021/06/09 10:04:19;;;;;;;3.37;1.50;;;;;;;38.90;26.21;94579.56;10513558;28;20039;-75
2021/06/09 10:09:42;;;;;;;4.43;1.98;;;;;;;37.85;25.84;94586.25;10511805;28;20021;-74
2021/06/09 10:14:49;;;;;;;5.35;1.55;;;;;;;37.91;25.09;94580.84;10511679;28;20024;-74
2021/06/09 10:19:56;;;;;;;2.97;1.02;;;;;;;39.16;23.05;94574.50;10512002;28;20356;-75
2021/06/09 10:25:06;;;;;;;2.45;1.00;;;;;;;39.25;23.78;94565.31;10513803;28;20032;-75
2021/06/09 10:30:29;;;;;;;1.65;0.88;;;;;;;38.16;22.27;94557.47;10512002;28;20024;-75
2021/06/09 10:35:34;;;;;;;2.03;0.90;;;;;;;37.85;22.33;94555.41;10509074;28;20045;-75
2021/06/09 10:40:34;;;;;;;1.27;0.70;;;;;;;38.98;22.80;94553.50;10507420;28;20433;-75
2021/06/09 10:45:37;;;;;;;1.50;1.13;;;;;;;39.01;21.65;94540.56;10509245;28;20032;-75
2021/06/09 10:50:38;;;;;;;3.13;1.20;;;;;;;37.43;25.71;94544.44;10506616;28;20024;-76
2021/06/09 10:55:38;;;;;;;2.75;1.42;;;;;;;38.66;24.79;94537.16;10506250;28;20039;-76
2021/06/09 11:00:40;;;;;;;2.42;1.42;;;;;;;36.07;26.52;94533.50;10506714;28;20028;-74
2021/06/09 11:05:40;;;;;;;3.42;1.52;;;;;;;33.14;31.46;94536.59;10489555;28;20033;-74
2021/06/09 11:10:43;;;;;;;6.43;2.30;;;;;;;30.44;35.97;94539.78;10489572;28;20024;-74
2021/06/09 11:15:44;;;;;;;5.53;1.50;;;;;;;29.06;36.44;94522.84;10489001;28;21175;-74
2021/06/09 11:20:49;;;;;;;3.25;1.70;;;;;;;28.47;37.89;94518.50;10488722;28;20024;-74
2021/06/09 11:25:51;;;;;;;3.28;1.70;;;;;;;28.50;40.85;94516.94;10504894;28;20024;-74
2021/06/09 11:30:57;;;;;;;5.20;1.98;;;;;;;28.17;39.98;94521.63;10488394;28;20043;-74
2021/06/09 11:36:00;;;;;;;3.50;1.83;;;;;;;27.55;43.47;94517.88;10489107;28;20039;-74
2021/06/09 11:41:09;;;;;;;3.20;1.95;;;;;;;27.38;43.30;94513.03;10488298;28;20028;-74
2021/06/09 11:46:20;;;;;;;2.88;1.80;;;;;;;27.32;42.68;94509.84;10504780;28;20802;-75
2021/06/09 11:51:32;;;;;;;3.83;2.40;;;;;;;27.23;46.15;94520.44;10488324;28;20108;-75
2021/06/09 11:56:42;;;;;;;5.10;2.22;;;;;;;26.04;50.70;94506.53;10488145;28;20411;-74
2021/06/09 12:01:44;;;;;;;3.50;2.22;;;;;;;26.29;51.72;94499.66;10487799;28;20021;-74
2021/06/09 12:06:57;;;;;;;6.60;2.13;;;;;;;26.22;47.69;94503.13;10488369;28;20028;-74
2021/06/09 12:12:00;;;;;;;2.17;1.95;;;;;;;26.12;41.33;94504.63;10488061;28;20027;-74
2021/06/09 12:17:24;;;;;;;2.40;1.70;;;;;;;25.96;43.34;94495.78;10487670;28;20035;-74
2021/06/09 12:22:27;;;;;;;2.63;2.00;;;;;;;25.90;41.31;94498.88;10503391;28;20085;-74
2021/06/09 12:27:29;;;;;;;2.60;1.85;;;;;;;25.82;43.32;94507.44;10489399;28;20115;-74
2021/06/09 12:32:32;;;;;;;2.45;2.10;;;;;;;25.23;52.55;94511.44;10495383;28;20503;-74
2021/06/09 12:37:35;;;;;;;5.13;2.60;;;;;;;25.00;57.86;94495.00;10496083;28;20027;-74
2021/06/09 12:42:37;;;;;;;4.60;2.40;;;;;;;23.98;56.63;94485.56;10495389;28;20103;-74
2021/06/09 12:47:41;;;;;;;4.90;2.13;;;;;;;23.72;58.80;94498.78;10495736;28;20469;-74
2021/06/09 12:52:44;;;;;;;3.28;2.50;;;;;;;23.71;55.31;94491.72;10511276;28;20799;-74
2021/06/09 12:57:45;;;;;;;2.50;1.70;;;;;;;23.89;51.76;94488.53;10495162;28;20033;-74
2021/06/09 13:02:45;;;;;;;3.80;1.88;;;;;;;23.86;48.48;94475.50;10495384;28;20100;-74
2021/06/09 13:07:46;;;;;;;2.40;1.77;;;;;;;23.76;49.58;94467.88;10494844;28;20024;-74
2021/06/09 13:12:51;;;;;;;3.35;1.65;;;;;;;23.83;49.40;94460.56;10494177;28;20024;-74
2021/06/09 13:17:51;;;;;;;2.08;1.60;;;;;;;23.83;52.46;94471.56;10494848;28;20031;-74
2021/06/09 13:22:53;;;;;;;2.17;1.80;;;;;;;23.82;50.07;94475.44;10493329;28;20390;-74
2021/06/09 13:27:56;;;;;;;3.72;2.20;;;;;;;23.76;51.32;94463.16;10493644;28;20025;-75
2021/06/09 13:32:58;;;;;;;3.08;2.10;;;;;;;23.80;54.29;94469.50;10500667;28;20040;-74
2021/06/09 13:38:00;;;;;;;4.90;2.35;;;;;;;23.72;60.51;94467.78;10493300;28;20020;-74
2021/06/09 13:43:08;;;;;;;6.13;2.50;;;;;;;23.61;64.70;94466.81;10491309;28;20021;-74
2021/06/09 13:48:17;;;;;;;4.75;2.38;;;;;;;23.75;65.42;94466.28;10491604;28;20021;-74
2021/06/09 13:53:17;;;;;;;2.70;2.40;;;;;;;23.88;66.28;94448.53;10506581;28;20020;-74
2021/06/09 13:58:29;;;;;;;6.63;2.90;;;;;;;24.05;60.44;94453.50;10507878;28;20016;-74
2021/06/09 14:03:30;;;;;;;3.90;2.55;;;;;;;24.22;55.58;94443.19;10491733;28;20035;-75
2021/06/09 14:08:31;;;;;;;6.07;2.28;;;;;;;23.99;55.71;94444.00;10491888;28;20380;-75
2021/06/09 14:13:32;;;;;;;6.50;2.03;;;;;;;24.07;51.28;94444.91;10492169;28;20910;-75
2021/06/09 14:18:40;;;;;;;3.67;1.90;;;;;;;24.08;51.51;94445.72;10490132;28;20082;-74
2021/06/09 14:23:42;;;;;;;3.90;1.98;;;;;;;24.02;54.57;94454.25;10507247;28;20045;-75
2021/06/09 14:28:46;;;;;;;3.17;2.40;;;;;;;24.06;56.38;94448.84;10490826;28;20020;-75
2021/06/09 14:34:10;;;;;;;5.80;2.63;;;;;;;23.92;67.70;94446.63;10490424;28;20131;-75
2021/06/09 14:39:12;;;;;;;4.10;2.38;;;;;;;23.95;58.00;94443.16;10488633;28;20029;-75
2021/06/09 14:44:39;;;;;;;2.72;1.70;;;;;;;23.76;56.57;94432.97;10488159;28;20028;-75
2021/06/09 14:49:41;;;;;;;3.65;2.22;;;;;;;23.58;62.14;94429.91;10488191;28;20024;-75
2021/06/09 14:54:44;;;;;;;3.15;2.38;;;;;;;23.33;70.07;94438.50;10486861;28;20025;-75
2021/06/09 14:59:51;;;;;;;10.50;3.65;;;;;;;23.27;73.67;94437.19;10488766;28;20750;-75
2021/06/09 15:04:53;;;;;;;3.63;2.47;;;;;;;23.09;74.30;94434.06;10503734;28;20182;-75
2021/06/09 15:09:55;;;;;;;3.00;2.67;;;;;;;23.07;75.37;94436.38;10487645;28;20052;-75
2021/06/09 15:14:57;;;;;;;3.70;3.00;;;;;;;22.98;71.34;94441.25;10486721;28;20021;-75
2021/06/09 15:19:59;;;;;;;7.68;3.20;;;;;;;22.94;77.86;94443.13;10486737;28;20033;-75
2021/06/09 15:24:59;;;;;;;4.82;3.00;;;;;;;22.89;76.06;94443.44;10502452;28;20039;-75
2021/06/09 15:30:00;;;;;;;8.65;2.83;;;;;;;22.79;73.44;94450.28;10487448;28;20020;-75
2021/06/09 15:35:00;;;;;;;3.88;2.70;;;;;;;22.78;77.88;94456.91;10487035;28;20041;-74
2021/06/09 15:40:01;;;;;;;3.38;2.75;;;;;;;22.67;75.33;94448.44;10487055;28;20090;-75
2021/06/09 15:45:03;;;;;;;5.45;2.85;;;;;;;22.55;79.11;94449.38;10486623;28;20028;-74
2021/06/09 15:50:06;;;;;;;4.75;2.92;;;;;;;22.38;82.33;94453.25;10486770;28;20498;-74
2021/06/09 15:55:07;;;;;;;8.07;3.20;;;;;;;22.24;86.50;94455.63;10486591;28;20024;-75
2021/06/09 16:00:11;;;;;;;6.25;3.63;;;;;;;22.11;89.98;94449.47;10486070;28;20032;-74
2021/06/09 16:05:13;;;;;;;8.82;4.30;;;;;;;21.72;99.02;94455.53;10500745;28;20078;-74
2021/06/09 16:10:14;;;;;;;12.90;3.60;;;;;;;21.37;100.00;94458.88;10485386;28;20031;-76
2021/06/09 16:15:14;;;;;;;8.80;4.25;;;;;;;21.24;100.00;94460.06;10485890;28;20368;-74
2021/06/09 16:20:15;;;;;;;8.33;4.20;;;;;;;21.12;100.00;94474.59;10485819;28;20021;-74
2021/06/09 16:25:16;;;;;;;9.32;3.90;;;;;;;21.16;100.00;94478.22;10483111;28;20056;-75
2021/06/09 16:30:17;;;;;;;9.32;4.25;;;;;;;21.34;100.00;94482.25;10485365;28;20032;-76
2021/06/09 16:35:18;;;;;;;7.65;4.20;;;;;;;21.45;100.00;94481.75;10500727;28;20579;-76
2021/06/09 16:40:19;;;;;;;7.03;4.27;;;;;;;21.23;100.00;94478.41;10501217;28;20139;-76
2021/06/09 16:45:22;;;;;;;6.10;3.78;;;;;;;21.30;100.00;94478.63;10484291;28;20880;-75
2021/06/09 16:50:23;;;;;;;6.63;3.80;;;;;;;21.29;100.00;94485.25;10486453;28;20032;-75
2021/06/09 17:00:24;;;;;;;7.75;4.10;;;;;;;21.05;100.00;94497.03;10486700;28;20562;-75
2021/06/09 17:05:25;;;;;;;13.68;3.92;;;;;;;21.02;100.00;94503.19;10486221;28;20037;-75
2021/06/09 17:10:25;;;;;;;8.90;3.97;;;;;;;20.70;100.00;94505.75;10486088;28;20043;-75
2021/06/09 17:15:26;;;;;;;7.03;4.07;;;;;;;20.63;100.00;94508.25;10489013;28;20097;-75
2021/06/09 17:20:26;;;;;;;9.37;4.10;;;;;;;20.49;100.00;94514.06;10493667;28;20361;-74
2021/06/09 17:25:26;;;;;;;8.13;4.40;;;;;;;20.45;100.00;94516.66;10493317;28;20031;-73
2021/06/09 17:30:27;;;;;;;5.80;4.00;;;;;;;20.41;100.00;94523.16;10493438;28;20808;-74
2021/06/09 17:35:27;;;;;;;6.73;3.60;;;;;;;20.26;100.00;94528.16;10499320;28;20049;-75
2021/06/09 17:40:28;;;;;;;8.00;4.57;;;;;;;20.31;100.00;94525.19;10535144;28;20414;-75
2021/06/09 17:45:29;;;;;;;7.03;3.95;;;;;;;20.38;100.00;94534.75;10534877;28;20249;-73
2021/06/09 17:50:29;;;;;;;8.23;4.25;;;;;;;20.32;100.00;94529.50;10533135;28;20076;-73
2021/06/09 17:55:30;;;;;;;5.38;4.57;;;;;;;20.32;100.00;94536.91;10534427;28;20024;-73
2021/06/09 18:00:36;;;;;;;7.07;3.95;;;;;;;20.31;100.00;94536.09;10534301;28;20028;-73
2021/06/09 18:05:39;;;;;;;6.40;4.22;;;;;;;20.24;100.00;94538.59;10548077;28;20028;-74
2021/06/09 18:10:40;;;;;;;8.88;4.05;;;;;;;20.18;100.00;94534.50;10534145;28;20043;-73
2021/06/09 18:15:40;;;;;;;6.53;3.83;;;;;;;20.09;100.00;94542.81;10498538;28;20382;-73
2021/06/09 18:20:41;;;;;;;5.07;4.00;;;;;;;20.11;100.00;94545.97;10490855;28;20036;-73
2021/06/09 18:25:41;;;;;;;6.68;4.97;;;;;;;20.03;100.00;94548.81;10518562;28;20089;-73
2021/06/09 18:30:41;;;;;;;8.23;5.23;;;;;;;19.87;100.00;94535.81;10526436;28;20028;-74
2021/06/09 18:35:42;;;;;;;8.93;4.72;;;;;;;19.71;100.00;94556.66;10489636;28;20302;-74
2021/06/09 18:40:44;;;;;;;20.90;7.47;;;;;;;19.79;100.00;94550.31;10497503;28;21175;-74
2021/06/09 18:45:44;;;;;;;10.90;5.57;;;;;;;19.72;100.00;94560.97;10510831;28;20028;-74
2021/06/09 18:50:45;;;;;;;11.80;5.70;;;;;;;19.58;100.00;94566.72;10507820;28;20032;-73
2021/06/09 18:55:46;;;;;;;12.43;5.95;;;;;;;19.53;100.00;94575.88;10509614;28;20457;-75
2021/06/09 19:00:46;;;;;;;6.78;5.03;;;;;;;19.44;100.00;94584.13;10522914;28;20028;-75
2021/06/09 19:05:48;;;;;;;9.30;6.30;;;;;;;19.40;100.00;94585.16;10531466;28;20036;-74
2021/06/09 19:10:49;;;;;;;9.82;4.82;;;;;;;19.28;100.00;94588.59;10531276;28;20032;-74
2021/06/09 19:15:49;;;;;;;15.18;5.97;;;;;;;19.17;100.00;94595.56;10531579;28;20084;-74
2021/06/09 19:20:50;;;;;;;7.90;5.22;;;;;;;19.09;100.00;94598.03;10531226;28;20803;-74
2021/06/09 19:25:50;;;;;;;11.45;5.82;;;;;;;19.08;100.00;94601.88;10529728;28;20028;-75
2021/06/09 19:30:51;;;;;;;8.73;5.43;;;;;;;18.98;100.00;94604.97;10530573;28;20107;-75
2021/06/09 19:35:51;;;;;;;12.68;5.50;;;;;;;18.88;100.00;94602.63;10529836;28;20024;-74
2021/06/09 19:40:55;;;;;;;11.98;6.32;;;;;;;18.71;100.00;94607.03;10528219;28;20024;-74
2021/06/09 19:45:55;;;;;;;13.63;6.32;;;;;;;18.56;100.00;94605.66;10530012;28;20032;-74
2021/06/09 19:50:56;;;;;;;11.10;6.60;;;;;;;18.45;100.00;94612.59;10528895;28;20932;-74
2021/06/09 19:55:56;;;;;;;14.10;6.88;;;;;;;18.38;100.00;94609.56;10529858;28;20024;-74
2021/06/09 20:00:56;;;;;;;13.20;7.57;;;;;;;18.13;100.00;94608.53;10528612;28;20463;-74
2021/06/09 20:05:57;;;;;;;11.63;7.03;;;;;;;17.99;100.00;94612.22;10529177;28;20044;-74
2021/06/09 20:10:58;;;;;;;14.30;7.45;;;;;;;17.86;100.00;94605.84;10490611;28;20032;-73
2021/06/09 20:15:59;;;;;;;14.75;6.70;;;;;;;17.85;100.00;94609.66;10487665;28;20025;-74
2021/06/09 20:21:01;;;;;;;9.02;6.25;;;;;;;17.77;100.00;94603.09;10487599;28;20445;-73
2021/06/09 20:31:21;;;;;;;11.98;7.05;;;;;;;17.66;100.00;94611.94;10505498;28;20076;-73
2021/06/09 20:36:22;;;;;;;9.33;6.40;;;;;;;17.65;100.00;94615.75;10487647;28;20111;-74
2021/06/09 20:41:22;;;;;;;13.80;7.82;;;;;;;17.56;100.00;94619.28;10506520;28;20472;-74
2021/06/09 20:46:22;;;;;;;8.85;6.53;;;;;;;17.41;100.00;94617.88;10524410;28;20024;-74
2021/06/09 20:51:24;;;;;;;22.97;10.83;;;;;;;17.25;100.00;94619.44;10493284;28;20116;-75
2021/06/09 20:56:26;;;;;;;25.48;8.65;;;;;;;17.24;100.00;94613.19;10494318;28;20138;-74
2021/06/09 21:01:26;;;;;;;18.00;8.48;;;;;;;17.22;100.00;94622.81;10494205;28;20081;-74
2021/06/09 21:06:27;;;;;;;10.20;7.28;;;;;;;17.16;100.00;94626.78;10494881;28;20075;-74
2021/06/09 21:11:28;;;;;;;18.17;8.60;;;;;;;17.15;100.00;94636.03;10494525;28;20040;-74
2021/06/09 21:16:29;;;;;;;9.98;7.43;;;;;;;17.11;100.00;94637.78;10492638;28;20130;-74
2021/06/09 21:21:30;;;;;;;21.13;8.35;;;;;;;16.98;100.00;94631.38;10494332;28;20476;-74
2021/06/09 21:26:30;;;;;;;11.23;7.87;;;;;;;16.78;100.00;94628.09;10493578;28;20040;-74
2021/06/09 21:31:31;;;;;;;13.00;6.97;;;;;;;16.62;100.00;94624.22;10492885;28;20057;-74
2021/06/09 21:36:31;;;;;;;10.80;7.97;;;;;;;16.54;100.00;94617.66;10493524;28;20306;-74
2021/06/09 21:41:33;;;;;;;15.43;8.82;;;;;;;16.56;100.00;94620.84;10493219;28;20401;-74
2021/06/09 21:46:33;;;;;;;18.52;8.85;;;;;;;16.46;100.00;94611.06;10492828;28;20044;-74
2021/06/09 21:51:34;;;;;;;10.07;7.20;;;;;;;16.44;100.00;94613.31;10493652;28;20035;-74
2021/06/09 21:56:35;;;;;;;13.45;7.78;;;;;;;16.48;100.00;94614.28;10492176;28;20158;-74
2021/06/09 22:01:36;;;;;;;10.93;6.90;;;;;;;16.43;100.00;94621.75;10491534;28;20032;-74
2021/06/09 22:06:36;;;;;;;8.27;6.55;;;;;;;16.17;100.00;94620.53;10492733;28;20286;-74
2021/06/09 22:11:37;;;;;;;8.00;6.33;;;;;;;16.23;100.00;94627.41;10492037;28;20032;-74
2021/06/09 22:16:37;;;;;;;9.75;6.00;;;;;;;16.10;100.00;94622.88;10490005;28;20289;-74
2021/06/09 22:21:38;;;;;;;8.55;5.78;;;;;;;15.86;100.00;94610.44;10492317;28;20044;-74
2021/06/09 22:26:38;;;;;;;7.18;6.03;;;;;;;15.91;100.00;94616.84;10491775;28;20495;-74
2021/06/09 22:31:39;;;;;;;9.57;6.55;;;;;;;15.91;100.00;94622.28;10489177;28;20075;-74
2021/06/09 22:36:40;;;;;;;10.40;6.72;;;;;;;15.80;100.00;94622.53;10491620;28;20032;-74
2021/06/09 22:41:41;;;;;;;10.27;5.40;;;;;;;15.58;100.00;94614.41;10490965;28;20033;-74
2021/06/09 22:46:41;;;;;;;9.20;6.22;;;;;;;15.50;100.00;94614.03;10490426;28;20032;-74
2021/06/09 22:51:42;;;;;;;9.50;7.13;;;;;;;15.58;100.00;94608.97;10490652;28;20031;-74
2021/06/09 22:56:42;;;;;;;10.10;6.47;;;;;;;15.57;100.00;94619.00;10490712;28;20283;-74
2021/06/09 23:01:42;;;;;;;11.60;6.83;;;;;;;15.39;100.00;94618.06;10490051;28;20763;-74
2021/06/09 23:06:44;;;;;;;10.83;7.57;;;;;;;15.12;100.00;94610.84;10489028;28;20088;-74
2021/06/09 23:11:45;;;;;;;9.52;7.00;;;;;;;15.28;100.00;94614.81;10489327;28;20400;-74
2021/06/09 23:16:46;;;;;;;16.50;6.82;;;;;;;15.16;100.00;94607.19;10489773;28;20024;-74